Time;durP1;ratioP1;P1;durP2;ratioP2;P2;SDS_P1;SDS_P2;PMS_P1;PMS_P2;Temp;Humidity;BMP_temperature;BMP_pressure;BME280_temperature;BME280_humidity;BME280_pressure;Samples;Min_cycle;Max_cycle;Signal;HPM_P1;HPM_P2
2021/12/31 00:02:13;;;;;;;;;;;0.20;93.70;;;;;;6099605;23;19924;-78
2021/12/31 00:04:40;;;;;;;;;;;0.20;93.60;;;;;;6123132;23;19948;-81
2021/12/31 00:07:07;;;;;;;;;;;0.10;93.50;;;;;;6099706;23;19954;-79
2021/12/31 00:09:33;;;;;;;;;;;0.10;93.40;;;;;;6098820;23;19925;-78
2021/12/31 00:12:02;;;;;;;;;;;0.10;93.50;;;;;;6099677;23;19921;-79
2021/12/31 00:14:29;;;;;;;;;;;0.10;93.50;;;;;;6099770;23;19921;-78
2021/12/31 00:16:57;;;;;;;;;;;0.10;93.50;;;;;;6099659;23;19921;-78
2021/12/31 00:19:26;;;;;;;;;;;0.10;93.50;;;;;;6098930;23;19925;-80
2021/12/31 00:21:52;;;;;;;;;;;0.00;93.70;;;;;;6099698;23;20347;-81
2021/12/31 00:24:19;;;;;;;;;;;0.10;93.70;;;;;;6098407;23;19921;-79
2021/12/31 00:26:47;;;;;;;;;;;0.10;93.70;;;;;;6099950;23;19971;-78
2021/12/31 00:29:14;;;;;;;;;;;0.10;93.80;;;;;;6099666;23;20342;-78
2021/12/31 00:31:40;;;;;;;;;;;0.10;93.80;;;;;;6098732;23;19932;-81
2021/12/31 00:34:07;;;;;;;;;;;0.20;94.20;;;;;;6099820;23;20266;-79
2021/12/31 00:36:38;;;;;;;;;;;0.20;93.70;;;;;;6099457;23;19921;-78
2021/12/31 00:39:05;;;;;;;;;;;0.20;93.70;;;;;;6102151;23;20243;-79
2021/12/31 00:41:32;;;;;;;;;;;0.20;93.60;;;;;;6101159;23;19976;-79
2021/12/31 00:43:59;;;;;;;;;;;0.20;93.70;;;;;;6102139;23;19971;-77
2021/12/31 00:46:26;;;;;;;;;;;0.20;93.90;;;;;;6121430;23;19936;-78
2021/12/31 00:48:53;;;;;;;;;;;0.20;93.90;;;;;;6072998;23;19921;-79
2021/12/31 00:51:20;;;;;;;;;;;0.20;93.90;;;;;;6097371;23;20409;-79
2021/12/31 00:53:46;;;;;;;;;;;0.20;93.90;;;;;;6072178;23;19928;-80
2021/12/31 00:56:13;;;;;;;;;;;0.20;93.90;;;;;;6098030;23;19925;-80
2021/12/31 00:58:40;;;;;;;;;;;0.20;93.80;;;;;;6071729;23;20236;-79
2021/12/31 01:01:07;;;;;;;;;;;0.20;93.70;;;;;;6072752;23;19927;-79
2021/12/31 01:03:34;;;;;;;;;;;0.00;93.80;;;;;;6071943;23;19948;-78
2021/12/31 01:06:01;;;;;;;;;;;0.00;94.00;;;;;;6072506;23;19925;-78
2021/12/31 01:08:28;;;;;;;;;;;-0.10;94.00;;;;;;6072096;23;19922;-78
2021/12/31 01:10:54;;;;;;;;;;;-0.10;94.40;;;;;;6072690;23;20303;-78
2021/12/31 01:13:31;;;;;;;;;;;-0.10;94.00;;;;;;6097084;23;19921;-80
2021/12/31 01:16:02;;;;;;;;;;;-0.10;94.00;;;;;;6097658;23;19975;-79
2021/12/31 01:21:17;;;;;;;;;;;0.00;94.00;;;;;;6082768;23;19925;-79
2021/12/31 01:23:44;;;;;;;;;;;-0.10;93.90;;;;;;6071668;23;19922;-78
2021/12/31 01:26:11;;;;;;;;;;;-0.10;93.80;;;;;;6072360;23;19972;-78
2021/12/31 01:28:38;;;;;;;;;;;-0.20;93.80;;;;;;6071778;23;19954;-78
2021/12/31 01:31:05;;;;;;;;;;;-0.20;93.90;;;;;;6072456;23;19921;-78
2021/12/31 01:33:32;;;;;;;;;;;-0.10;94.00;;;;;;6071413;23;19922;-78
2021/12/31 01:35:59;;;;;;;;;;;-0.20;93.90;;;;;;6071997;23;19928;-79
2021/12/31 01:38:26;;;;;;;;;;;-0.10;94.00;;;;;;6071761;23;19925;-79
2021/12/31 01:40:54;;;;;;;;;;;-0.10;94.00;;;;;;6072734;23;19922;-79
2021/12/31 01:43:20;;;;;;;;;;;0.00;94.10;;;;;;6072120;23;19921;-78
2021/12/31 01:45:54;;;;;;;;;;;0.00;94.00;;;;;;6071887;23;19928;-79
2021/12/31 01:48:35;;;;;;;;;;;0.00;93.90;;;;;;6098452;23;19928;-81
2021/12/31 01:51:02;;;;;;;;;;;0.00;93.80;;;;;;6099541;23;20775;-81
2021/12/31 01:53:29;;;;;;;;;;;-0.10;93.70;;;;;;6101135;23;20302;-78
2021/12/31 01:55:58;;;;;;;;;;;-0.10;93.70;;;;;;6100159;23;19920;-78
2021/12/31 01:58:25;;;;;;;;;;;-0.20;93.80;;;;;;6100897;23;19929;-79
2021/12/31 02:00:52;;;;;;;;;;;-0.20;93.90;;;;;;6100311;23;20258;-79
2021/12/31 02:03:20;;;;;;;;;;;-0.20;93.90;;;;;;6101084;23;20258;-79
2021/12/31 02:05:48;;;;;;;;;;;-0.20;93.80;;;;;;6099651;23;19920;-78
2021/12/31 02:08:15;;;;;;;;;;;-0.30;93.70;;;;;;6100955;23;20346;-79
2021/12/31 02:10:42;;;;;;;;;;;-0.30;93.50;;;;;;6100001;23;20360;-80
2021/12/31 02:13:10;;;;;;;;;;;-0.40;93.50;;;;;;6100914;23;19921;-78
2021/12/31 02:15:36;;;;;;;;;;;-0.40;93.70;;;;;;6099759;23;20258;-78
2021/12/31 02:18:08;;;;;;;;;;;-0.50;93.80;;;;;;6097798;23;20430;-81
2021/12/31 02:20:45;;;;;;;;;;;-0.50;93.90;;;;;;6100753;23;19967;-78
2021/12/31 02:23:16;;;;;;;;;;;-0.50;93.80;;;;;;6125307;23;19925;-77
2021/12/31 02:25:42;;;;;;;;;;;-0.50;93.80;;;;;;6098564;23;19921;-79
2021/12/31 02:28:09;;;;;;;;;;;-0.50;93.80;;;;;;6099277;23;19976;-79
2021/12/31 02:30:36;;;;;;;;;;;-0.50;93.70;;;;;;6126007;23;19921;-79
2021/12/31 02:33:03;;;;;;;;;;;-0.50;93.80;;;;;;6099532;23;20350;-79
2021/12/31 02:35:31;;;;;;;;;;;-0.50;93.80;;;;;;6100718;23;20401;-78
2021/12/31 02:37:58;;;;;;;;;;;-0.50;93.80;;;;;;6099487;23;20339;-79
2021/12/31 02:40:28;;;;;;;;;;;-0.50;93.70;;;;;;6100329;23;19925;-79
2021/12/31 02:42:56;;;;;;;;;;;-0.60;93.60;;;;;;6100050;23;20253;-78
2021/12/31 02:45:34;;;;;;;;;;;-0.70;93.60;;;;;;6100408;23;19921;-79
2021/12/31 02:48:03;;;;;;;;;;;-0.70;93.60;;;;;;6099370;23;19963;-80
2021/12/31 02:50:34;;;;;;;;;;;-0.60;93.70;;;;;;6100590;23;19978;-79
2021/12/31 02:53:06;;;;;;;;;;;-0.70;93.60;;;;;;6099544;23;19936;-78
2021/12/31 02:55:34;;;;;;;;;;;-0.70;93.60;;;;;;6100237;23;19944;-78
2021/12/31 02:58:03;;;;;;;;;;;-0.80;93.60;;;;;;6099484;23;19925;-78
2021/12/31 03:00:31;;;;;;;;;;;-0.70;93.70;;;;;;6099824;23;20258;-78
2021/12/31 03:02:58;;;;;;;;;;;-0.80;93.70;;;;;;6098537;23;19921;-79
2021/12/31 03:05:29;;;;;;;;;;;-0.80;93.50;;;;;;6100506;23;20343;-79
2021/12/31 03:07:57;;;;;;;;;;;-0.80;93.50;;;;;;6099218;23;19921;-79
2021/12/31 03:10:26;;;;;;;;;;;-0.80;93.40;;;;;;6099909;23;19972;-78
2021/12/31 03:12:53;;;;;;;;;;;-0.80;93.40;;;;;;6099177;23;19996;-80
2021/12/31 03:15:20;;;;;;;;;;;-0.90;93.60;;;;;;6100442;23;19961;-78
2021/12/31 03:17:47;;;;;;;;;;;-0.90;93.60;;;;;;6125300;23;19921;-78
2021/12/31 03:20:25;;;;;;;;;;;-0.80;93.50;;;;;;6099515;23;19921;-78
2021/12/31 03:22:52;;;;;;;;;;;-0.80;93.40;;;;;;6099384;23;19921;-78
2021/12/31 03:25:19;;;;;;;;;;;-0.90;93.30;;;;;;6100577;23;19921;-80
2021/12/31 03:27:46;;;;;;;;;;;-0.90;93.20;;;;;;6125938;23;19925;-81
2021/12/31 03:30:13;;;;;;;;;;;-0.90;93.10;;;;;;6124804;23;20278;-80
2021/12/31 03:32:40;;;;;;;;;;;-1.00;93.10;;;;;;6099534;23;19944;-78
2021/12/31 03:35:07;;;;;;;;;;;-1.00;93.00;;;;;;6098778;23;19975;-79
2021/12/31 03:37:34;;;;;;;;;;;-1.00;93.10;;;;;;6100503;23;19976;-78
2021/12/31 03:40:01;;;;;;;;;;;-1.00;93.00;;;;;;6099459;23;19996;-78
2021/12/31 03:42:28;;;;;;;;;;;-1.10;93.10;;;;;;6091169;23;19976;-77
2021/12/31 03:44:54;;;;;;;;;;;-1.10;93.50;;;;;;6094869;23;20377;-78
2021/12/31 03:47:21;;;;;;;;;;;-1.10;93.50;;;;;;6099657;23;19921;-81
2021/12/31 03:49:48;;;;;;;;;;;-1.10;93.40;;;;;;6099922;23;20303;-78
2021/12/31 03:52:15;;;;;;;;;;;-1.10;93.40;;;;;;6099456;23;20354;-81
2021/12/31 03:54:42;;;;;;;;;;;-1.10;93.40;;;;;;6099862;23;19921;-79
2021/12/31 03:57:09;;;;;;;;;;;-1.10;93.40;;;;;;6098698;23;19924;-80
2021/12/31 03:59:36;;;;;;;;;;;-1.00;93.60;;;;;;6099697;23;20334;-79
2021/12/31 04:02:03;;;;;;;;;;;-0.90;93.60;;;;;;6124480;23;19984;-79
2021/12/31 04:04:30;;;;;;;;;;;-0.90;93.60;;;;;;6100309;23;19925;-80
2021/12/31 04:06:57;;;;;;;;;;;-0.80;93.50;;;;;;6098666;23;19921;-78
2021/12/31 04:09:24;;;;;;;;;;;-0.80;93.60;;;;;;6099543;23;19968;-80
2021/12/31 04:11:50;;;;;;;;;;;-0.70;93.90;;;;;;6099554;23;20310;-79
2021/12/31 04:14:17;;;;;;;;;;;-0.70;93.90;;;;;;6098468;23;20323;-80
2021/12/31 04:16:44;;;;;;;;;;;-0.70;93.80;;;;;;6099906;23;19927;-78
2021/12/31 04:19:11;;;;;;;;;;;-0.80;93.60;;;;;;6097546;23;19951;-78
2021/12/31 04:21:38;;;;;;;;;;;-0.80;93.60;;;;;;6099292;23;19921;-78
2021/12/31 04:24:08;;;;;;;;;;;-0.80;93.50;;;;;;6124004;23;19988;-78
2021/12/31 04:26:35;;;;;;;;;;;-0.80;93.50;;;;;;6100010;23;20258;-78
2021/12/31 04:29:02;;;;;;;;;;;-0.80;93.50;;;;;;6124042;23;19928;-79
2021/12/31 04:31:28;;;;;;;;;;;-0.80;93.50;;;;;;6125329;23;19921;-78
2021/12/31 04:33:56;;;;;;;;;;;-0.80;93.60;;;;;;6125364;23;19964;-80
2021/12/31 04:36:22;;;;;;;;;;;-0.80;93.80;;;;;;6099090;23;20453;-79
2021/12/31 04:38:49;;;;;;;;;;;-0.70;93.90;;;;;;6099741;23;19925;-78
2021/12/31 04:41:16;;;;;;;;;;;-0.70;93.90;;;;;;6098841;23;19992;-78
2021/12/31 04:43:43;;;;;;;;;;;-0.60;94.00;;;;;;6099661;23;19968;-80
2021/12/31 04:46:10;;;;;;;;;;;-0.60;94.20;;;;;;6097943;23;19976;-78
2021/12/31 04:48:37;;;;;;;;;;;-0.50;94.50;;;;;;6070862;23;19968;-79
2021/12/31 04:51:04;;;;;;;;;;;-0.50;94.40;;;;;;6070115;23;20395;-79
2021/12/31 04:53:31;;;;;;;;;;;-0.50;94.50;;;;;;6070496;23;19933;-78
2021/12/31 04:55:58;;;;;;;;;;;-0.40;94.50;;;;;;6070852;23;19981;-80
2021/12/31 04:58:25;;;;;;;;;;;-0.40;94.50;;;;;;6069673;23;20017;-78
2021/12/31 05:00:52;;;;;;;;;;;-0.40;94.50;;;;;;6095895;23;19922;-80
2021/12/31 05:03:20;;;;;;;;;;;-0.40;94.50;;;;;;6070259;23;19921;-79
2021/12/31 05:05:46;;;;;;;;;;;-0.30;94.60;;;;;;6070620;23;19932;-80
2021/12/31 05:08:13;;;;;;;;;;;-0.40;94.70;;;;;;6070095;23;19921;-78
2021/12/31 05:10:40;;;;;;;;;;;-0.30;94.60;;;;;;6070918;23;19925;-78
2021/12/31 05:13:09;;;;;;;;;;;-0.40;94.50;;;;;;6094753;23;19922;-78
2021/12/31 05:15:43;;;;;;;;;;;-0.40;94.50;;;;;;6070829;23;19995;-79
2021/12/31 05:18:11;;;;;;;;;;;-0.40;94.60;;;;;;6069929;23;20273;-78
2021/12/31 05:20:37;;;;;;;;;;;-0.50;94.40;;;;;;6070366;23;19921;-78
2021/12/31 05:23:04;;;;;;;;;;;-0.50;94.40;;;;;;6070020;23;19929;-81
2021/12/31 05:25:31;;;;;;;;;;;-0.50;94.50;;;;;;6072229;23;19921;-79
2021/12/31 05:27:58;;;;;;;;;;;-0.60;94.50;;;;;;6072705;23;20338;-78
2021/12/31 05:30:25;;;;;;;;;;;-0.60;94.60;;;;;;6047217;23;19925;-79
2021/12/31 05:32:52;;;;;;;;;;;-0.60;94.70;;;;;;6097495;23;20353;-78
2021/12/31 05:35:19;;;;;;;;;;;-0.70;94.80;;;;;;6071519;23;19973;-78
2021/12/31 05:37:46;;;;;;;;;;;-0.70;94.80;;;;;;6071910;23;19929;-78
2021/12/31 05:40:12;;;;;;;;;;;-0.70;94.80;;;;;;6071390;23;19922;-79
2021/12/31 05:42:39;;;;;;;;;;;-0.70;94.90;;;;;;6072106;23;19922;-78
2021/12/31 05:45:06;;;;;;;;;;;-0.70;94.90;;;;;;6070792;23;19929;-78
2021/12/31 05:47:33;;;;;;;;;;;-0.60;95.00;;;;;;6089808;23;19975;-79
2021/12/31 05:50:03;;;;;;;;;;;-0.70;95.00;;;;;;6100682;23;20437;-78
2021/12/31 05:52:30;;;;;;;;;;;-0.60;95.00;;;;;;6126463;23;19924;-80
2021/12/31 05:54:57;;;;;;;;;;;-0.60;94.80;;;;;;6100197;23;19921;-78
2021/12/31 05:57:24;;;;;;;;;;;-0.70;94.80;;;;;;6125242;23;19974;-79
2021/12/31 05:59:51;;;;;;;;;;;-0.70;94.80;;;;;;6126054;23;19920;-78
2021/12/31 06:02:18;;;;;;;;;;;-0.70;94.80;;;;;;6100248;23;19920;-79
2021/12/31 06:04:45;;;;;;;;;;;-0.80;94.60;;;;;;6126243;23;19948;-79
2021/12/31 06:07:12;;;;;;;;;;;-0.90;94.40;;;;;;6100079;23;19921;-77
2021/12/31 06:09:39;;;;;;;;;;;-1.00;94.50;;;;;;6126395;23;19980;-78
2021/12/31 06:12:06;;;;;;;;;;;-1.00;94.40;;;;;;6126325;23;20421;-79
2021/12/31 06:14:33;;;;;;;;;;;-1.00;94.40;;;;;;6100019;23;19964;-78
2021/12/31 06:17:06;;;;;;;;;;;-1.10;94.40;;;;;;6100847;23;19925;-78
2021/12/31 06:19:33;;;;;;;;;;;-1.10;94.40;;;;;;6125636;23;20356;-79
2021/12/31 06:22:00;;;;;;;;;;;-1.10;94.40;;;;;;6100280;23;19921;-77
2021/12/31 06:24:28;;;;;;;;;;;-1.10;94.40;;;;;;6100088;23;19972;-78
2021/12/31 06:26:55;;;;;;;;;;;-1.10;94.40;;;;;;6100823;23;19925;-78
2021/12/31 06:29:22;;;;;;;;;;;-1.20;94.30;;;;;;6099679;23;20294;-78
2021/12/31 06:31:49;;;;;;;;;;;-1.20;94.30;;;;;;6100410;23;19921;-78
2021/12/31 06:34:16;;;;;;;;;;;-1.30;94.30;;;;;;6099390;23;19925;-77
2021/12/31 06:36:42;;;;;;;;;;;-1.40;94.30;;;;;;6100584;23;20302;-79
2021/12/31 06:39:09;;;;;;;;;;;-1.40;94.70;;;;;;6099629;23;20302;-78
2021/12/31 06:41:36;;;;;;;;;;;-1.40;94.30;;;;;;6100381;23;20339;-79
2021/12/31 06:44:04;;;;;;;;;;;-1.40;94.30;;;;;;6125722;23;19921;-79
2021/12/31 06:46:30;;;;;;;;;;;-1.40;94.30;;;;;;6099348;23;19929;-79
2021/12/31 06:48:57;;;;;;;;;;;-1.40;94.30;;;;;;6098390;23;19921;-78
2021/12/31 06:51:25;;;;;;;;;;;-1.40;94.20;;;;;;6123016;23;19925;-78
2021/12/31 06:53:52;;;;;;;;;;;-1.40;94.50;;;;;;6099152;23;19971;-78
2021/12/31 06:56:19;;;;;;;;;;;-1.40;94.10;;;;;;6098569;23;19921;-79
2021/12/31 06:58:46;;;;;;;;;;;-1.40;94.00;;;;;;6125358;23;19936;-79
2021/12/31 07:01:13;;;;;;;;;;;-1.50;94.00;;;;;;6123052;23;19921;-78
2021/12/31 07:03:40;;;;;;;;;;;-1.50;94.00;;;;;;6099436;23;20395;-79
2021/12/31 07:06:07;;;;;;;;;;;-1.50;94.00;;;;;;6099665;23;19976;-79
2021/12/31 07:08:34;;;;;;;;;;;-1.50;93.90;;;;;;6124168;23;19928;-79
2021/12/31 07:11:01;;;;;;;;;;;-1.50;93.90;;;;;;6099189;23;19976;-77
2021/12/31 07:13:28;;;;;;;;;;;-1.50;93.90;;;;;;6097899;23;19920;-78
2021/12/31 07:15:55;;;;;;;;;;;-1.50;93.80;;;;;;6125244;23;19949;-77
2021/12/31 07:18:23;;;;;;;;;;;-1.40;94.00;;;;;;6098657;23;19976;-77
2021/12/31 07:20:50;;;;;;;;;;;-1.40;93.90;;;;;;6099631;23;19924;-79
2021/12/31 07:23:18;;;;;;;;;;;-1.40;93.80;;;;;;6097931;23;19925;-78
2021/12/31 07:25:45;;;;;;;;;;;-1.40;93.70;;;;;;6125045;23;19928;-79
2021/12/31 07:28:13;;;;;;;;;;;-1.30;93.70;;;;;;6099036;23;19925;-78
2021/12/31 07:30:40;;;;;;;;;;;-1.50;93.50;;;;;;6099155;23;20472;-78
2021/12/31 07:33:15;;;;;;;;;;;-1.40;93.50;;;;;;6099610;23;20378;-79
2021/12/31 07:35:42;;;;;;;;;;;-1.40;93.50;;;;;;6074487;23;19943;-79
2021/12/31 07:38:17;;;;;;;;;;;-1.40;93.50;;;;;;6099312;23;19921;-78
2021/12/31 07:40:44;;;;;;;;;;;-1.40;93.50;;;;;;6099451;23;19933;-80
2021/12/31 07:43:11;;;;;;;;;;;-1.40;93.60;;;;;;6098310;23;20347;-77
2021/12/31 07:45:39;;;;;;;;;;;-1.30;93.60;;;;;;6100069;23;19925;-78
2021/12/31 07:48:06;;;;;;;;;;;-0.70;93.70;;;;;;6100421;23;19931;-78
2021/12/31 07:50:33;;;;;;;;;;;0.00;92.70;;;;;;6098260;23;19921;-78
2021/12/31 07:53:00;;;;;;;;;;;0.80;92.30;;;;;;6125475;23;19921;-78
2021/12/31 07:55:27;;;;;;;;;;;1.50;91.00;;;;;;6097524;23;19928;-78
2021/12/31 07:57:54;;;;;;;;;;;2.10;89.40;;;;;;6097906;23;20365;-79
2021/12/31 08:00:20;;;;;;;;;;;2.50;85.30;;;;;;6098327;23;20350;-77
2021/12/31 08:02:49;;;;;;;;;;;2.80;82.90;;;;;;6125207;23;19925;-79
2021/12/31 08:05:16;;;;;;;;;;;3.00;81.00;;;;;;6097842;23;19924;-78
2021/12/31 08:07:42;;;;;;;;;;;3.10;80.60;;;;;;6097852;23;20346;-79
2021/12/31 08:10:09;;;;;;;;;;;3.00;80.60;;;;;;6124149;23;20022;-79
2021/12/31 08:12:58;;;;;;;;;;;2.80;81.20;;;;;;6102771;23;19921;-77
2021/12/31 08:15:25;;;;;;;;;;;2.70;81.70;;;;;;6099408;23;20331;-77
2021/12/31 08:17:54;;;;;;;;;;;2.50;82.70;;;;;;6099066;23;20017;-78
2021/12/31 08:20:21;;;;;;;;;;;2.40;83.40;;;;;;6121981;23;19932;-77
2021/12/31 08:22:48;;;;;;;;;;;2.40;84.10;;;;;;6098631;23;20346;-76
2021/12/31 08:25:14;;;;;;;;;;;2.30;84.50;;;;;;6124669;23;19981;-79
2021/12/31 08:27:41;;;;;;;;;;;2.20;85.50;;;;;;6124125;23;19924;-78
2021/12/31 08:30:09;;;;;;;;;;;2.20;85.70;;;;;;6099520;23;19945;-76
2021/12/31 08:32:35;;;;;;;;;;;2.30;85.60;;;;;;6098083;23;19925;-78
2021/12/31 08:35:04;;;;;;;;;;;2.40;85.80;;;;;;6098209;23;19996;-76
2021/12/31 08:37:31;;;;;;;;;;;2.40;85.80;;;;;;6125298;23;19925;-80
2021/12/31 08:39:58;;;;;;;;;;;2.50;85.90;;;;;;6098301;23;19983;-78
2021/12/31 08:42:25;;;;;;;;;;;2.50;86.80;;;;;;6099739;23;19961;-78
2021/12/31 08:44:53;;;;;;;;;;;2.60;85.90;;;;;;6098463;23;19968;-78
2021/12/31 08:47:27;;;;;;;;;;;2.60;86.20;;;;;;6100781;23;19959;-76
2021/12/31 08:49:54;;;;;;;;;;;2.70;87.40;;;;;;6074647;23;19961;-78
2021/12/31 08:52:21;;;;;;;;;;;2.70;86.20;;;;;;6124144;23;19925;-77
2021/12/31 08:54:49;;;;;;;;;;;2.80;85.90;;;;;;6099037;23;19932;-76
2021/12/31 08:57:17;;;;;;;;;;;2.80;86.40;;;;;;6124628;23;20342;-78
2021/12/31 08:59:44;;;;;;;;;;;2.80;86.40;;;;;;6099132;23;20363;-77
2021/12/31 09:02:13;;;;;;;;;;;2.90;86.50;;;;;;6100018;23;19920;-77
2021/12/31 09:04:39;;;;;;;;;;;3.00;86.50;;;;;;6125677;23;19921;-78
2021/12/31 09:07:06;;;;;;;;;;;3.10;86.40;;;;;;6100906;23;19928;-79
2021/12/31 09:09:33;;;;;;;;;;;2.90;86.70;;;;;;6101708;23;19984;-79
2021/12/31 09:12:00;;;;;;;;;;;3.00;88.10;;;;;;6076612;23;19936;-77
2021/12/31 09:14:27;;;;;;;;;;;3.00;87.40;;;;;;6101155;23;19928;-80
2021/12/31 09:16:54;;;;;;;;;;;3.20;87.50;;;;;;6100415;23;19948;-80
2021/12/31 09:19:21;;;;;;;;;;;3.30;87.50;;;;;;6100691;23;19928;-78
2021/12/31 09:21:49;;;;;;;;;;;3.40;87.20;;;;;;6125818;23;19928;-80
2021/12/31 09:24:15;;;;;;;;;;;3.50;87.50;;;;;;6099737;23;19992;-80
2021/12/31 09:26:42;;;;;;;;;;;3.60;87.30;;;;;;6100611;23;19925;-80
2021/12/31 09:29:09;;;;;;;;;;;3.70;86.90;;;;;;6100853;23;19925;-77
2021/12/31 09:31:36;;;;;;;;;;;3.70;86.90;;;;;;6126126;23;19948;-78
2021/12/31 09:34:03;;;;;;;;;;;3.90;87.00;;;;;;6100490;23;20523;-79
2021/12/31 09:36:30;;;;;;;;;;;3.90;87.00;;;;;;6126470;23;19921;-80
2021/12/31 09:38:57;;;;;;;;;;;4.00;87.60;;;;;;6125355;23;20342;-78
2021/12/31 09:41:24;;;;;;;;;;;4.10;87.30;;;;;;6100945;23;19921;-77
2021/12/31 09:43:51;;;;;;;;;;;4.20;87.60;;;;;;6100088;23;19925;-78
2021/12/31 09:46:19;;;;;;;;;;;4.30;87.50;;;;;;6098001;23;20298;-79
2021/12/31 09:48:46;;;;;;;;;;;4.40;87.60;;;;;;6095757;23;20413;-79
2021/12/31 09:51:13;;;;;;;;;;;4.60;86.90;;;;;;6071791;23;20343;-77
2021/12/31 09:53:40;;;;;;;;;;;4.70;87.30;;;;;;6070747;23;19929;-77
2021/12/31 09:56:08;;;;;;;;;;;4.80;87.50;;;;;;6096677;23;20274;-80
2021/12/31 09:58:36;;;;;;;;;;;4.90;86.90;;;;;;6096928;23;20413;-79
2021/12/31 10:01:03;;;;;;;;;;;5.00;86.90;;;;;;6070890;23;19921;-76
2021/12/31 10:03:31;;;;;;;;;;;5.20;87.50;;;;;;6071480;23;19929;-76
2021/12/31 10:06:11;;;;;;;;;;;5.30;87.20;;;;;;6095987;23;19932;-78
2021/12/31 10:08:39;;;;;;;;;;;5.40;87.10;;;;;;6072472;23;19925;-77
2021/12/31 10:11:24;;;;;;;;;;;5.40;86.10;;;;;;6095924;23;19925;-76
2021/12/31 10:13:51;;;;;;;;;;;5.50;86.20;;;;;;6044236;23;19928;-78
2021/12/31 10:16:24;;;;;;;;;;;5.70;87.10;;;;;;6062512;23;20339;-79
2021/12/31 10:19:10;;;;;;;;;;;5.80;86.50;;;;;;6072032;23;19921;-79
2021/12/31 10:21:45;;;;;;;;;;;6.00;86.70;;;;;;6059570;23;19953;-78
2021/12/31 10:24:18;;;;;;;;;;;6.20;86.30;;;;;;6071710;23;19929;-77
2021/12/31 10:26:45;;;;;;;;;;;6.30;86.20;;;;;;6072635;23;20300;-80
2021/12/31 10:29:14;;;;;;;;;;;6.50;85.20;;;;;;6071125;23;19973;-76
2021/12/31 10:31:45;;;;;;;;;;;6.60;84.00;;;;;;6073094;23;19973;-79
2021/12/31 10:34:32;;;;;;;;;;;6.60;84.70;;;;;;6070813;23;19921;-78
2021/12/31 10:37:19;;;;;;;;;;;6.70;85.20;;;;;;6070351;23;19921;-80
2021/12/31 10:39:57;;;;;;;;;;;6.80;86.30;;;;;;6071958;23;20363;-80
2021/12/31 10:42:33;;;;;;;;;;;6.90;86.10;;;;;;6071582;23;19921;-77
2021/12/31 10:45:02;;;;;;;;;;;7.10;86.30;;;;;;6071130;23;19929;-79
2021/12/31 10:47:29;;;;;;;;;;;7.20;85.90;;;;;;6088902;23;19925;-78
2021/12/31 10:50:02;;;;;;;;;;;7.40;84.80;;;;;;6101534;23;19928;-79
2021/12/31 10:52:35;;;;;;;;;;;7.60;84.60;;;;;;6099871;23;19976;-79
2021/12/31 10:57:44;;;;;;;;;;;7.90;84.20;;;;;;6124689;23;19984;-78
2021/12/31 11:00:11;;;;;;;;;;;8.10;83.20;;;;;;6100985;23;19928;-77
2021/12/31 11:02:38;;;;;;;;;;;8.20;82.70;;;;;;6099249;23;19925;-79
2021/12/31 11:05:06;;;;;;;;;;;8.30;82.20;;;;;;6101726;23;19947;-79
2021/12/31 11:07:34;;;;;;;;;;;8.40;82.40;;;;;;6099128;23;19932;-80
2021/12/31 11:10:25;;;;;;;;;;;8.50;81.60;;;;;;6103225;23;19949;-79
2021/12/31 11:12:52;;;;;;;;;;;8.70;81.70;;;;;;6100232;23;20386;-77
2021/12/31 11:15:19;;;;;;;;;;;8.90;80.20;;;;;;6100421;23;19921;-77
2021/12/31 11:17:47;;;;;;;;;;;9.00;78.70;;;;;;6124571;23;19920;-76
2021/12/31 11:20:21;;;;;;;;;;;9.10;79.90;;;;;;6101075;23;20302;-78
2021/12/31 11:22:48;;;;;;;;;;;9.30;78.60;;;;;;6099288;23;19925;-77
2021/12/31 11:25:35;;;;;;;;;;;9.50;79.00;;;;;;6103350;23;19972;-77
2021/12/31 11:28:02;;;;;;;;;;;9.60;77.30;;;;;;6100095;23;19921;-79
2021/12/31 11:30:39;;;;;;;;;;;9.80;76.80;;;;;;6098806;23;19925;-77
2021/12/31 11:33:07;;;;;;;;;;;9.90;77.70;;;;;;6125206;23;19948;-79
2021/12/31 11:35:34;;;;;;;;;;;10.20;76.50;;;;;;6125631;23;19921;-76
2021/12/31 11:38:03;;;;;;;;;;;10.30;76.60;;;;;;6100693;23;19932;-78
2021/12/31 11:40:35;;;;;;;;;;;10.40;75.90;;;;;;6099676;23;19928;-79
2021/12/31 11:43:19;;;;;;;;;;;10.60;74.70;;;;;;6100005;23;20440;-77
2021/12/31 11:46:04;;;;;;;;;;;10.80;74.30;;;;;;6099142;23;19984;-80
2021/12/31 11:48:50;;;;;;;;;;;11.00;74.60;;;;;;6098515;23;20342;-79
2021/12/31 11:51:34;;;;;;;;;;;11.20;73.10;;;;;;6099818;23;19928;-79
2021/12/31 11:54:01;;;;;;;;;;;11.40;72.50;;;;;;6098974;23;19984;-79
2021/12/31 11:56:34;;;;;;;;;;;11.50;72.80;;;;;;6099142;23;19929;-77
2021/12/31 11:59:07;;;;;;;;;;;11.80;71.80;;;;;;6097959;23;19925;-79
2021/12/31 12:01:37;;;;;;;;;;;11.80;70.10;;;;;;6099591;23;20338;-78
2021/12/31 12:04:22;;;;;;;;;;;12.00;70.00;;;;;;6098818;23;20023;-79
2021/12/31 12:07:00;;;;;;;;;;;12.10;70.10;;;;;;6124130;23;19927;-79
2021/12/31 12:09:35;;;;;;;;;;;12.30;69.20;;;;;;6100517;23;19921;-78
2021/12/31 12:12:15;;;;;;;;;;;12.40;67.30;;;;;;6100673;23;19920;-79
2021/12/31 12:14:53;;;;;;;;;;;12.50;67.00;;;;;;6099837;23;19936;-77
2021/12/31 12:17:43;;;;;;;;;;;12.60;65.00;;;;;;6101075;23;19921;-78
2021/12/31 12:20:13;;;;;;;;;;;12.60;65.50;;;;;;6098415;23;20364;-79
2021/12/31 12:22:39;;;;;;;;;;;12.70;64.80;;;;;;6100579;23;19921;-79
2021/12/31 12:25:26;;;;;;;;;;;12.80;64.30;;;;;;6099605;23;19921;-78
2021/12/31 12:27:54;;;;;;;;;;;12.90;64.20;;;;;;6100084;23;19921;-78
2021/12/31 12:30:26;;;;;;;;;;;13.00;63.90;;;;;;6100654;23;19929;-77
2021/12/31 12:35:36;;;;;;;;;;;13.40;62.90;;;;;;6128598;23;19924;-79
2021/12/31 12:38:12;;;;;;;23.15;20.73;;;13.50;62.80;;;;;;6103260;23;19928;-80
2021/12/31 12:40:58;;;;;;;22.55;19.40;;;13.60;61.10;;;;;;6100629;23;20026;-80
2021/12/31 12:43:30;;;;;;;21.88;18.60;;;13.60;62.40;;;;;;6101797;23;20396;-80
2021/12/31 12:46:10;;;;;;;24.52;18.70;;;13.70;60.10;;;;;;6100937;23;20399;-80
2021/12/31 12:48:43;;;;;;;30.63;21.13;;;13.90;59.60;;;;;;6101647;23;20093;-80
2021/12/31 12:51:12;;;;;;;58.65;32.28;;;14.00;58.40;;;;;;6127246;23;20045;-80
2021/12/31 12:53:42;;;;;;;35.42;23.63;;;14.10;59.90;;;;;;6102208;23;20077;-78
2021/12/31 12:56:17;;;;;;;26.60;18.25;;;14.20;59.30;;;;;;6101557;23;20471;-78
2021/12/31 12:58:52;;;;;;;18.95;16.45;;;14.40;58.40;;;;;;6130799;23;20026;-78
2021/12/31 13:01:41;;;;;;;20.33;16.30;;;14.50;57.70;;;;;;6102114;23;20092;-81
2021/12/31 13:04:11;;;;;;;17.38;15.00;;;14.50;57.10;;;;;;6102424;23;20105;-79
2021/12/31 13:06:44;;;;;;;19.45;15.20;;;14.60;56.90;;;;;;6101364;23;20026;-80
2021/12/31 13:09:13;;;;;;;;;;;14.70;55.80;;;;;;6101623;23;20030;-78
2021/12/31 13:11:43;;;;;;;;;;;14.70;55.50;;;;;;6099721;23;19925;-78
2021/12/31 13:14:14;;;;;;;;;;;14.60;56.20;;;;;;6100208;23;19916;-78
2021/12/31 13:16:42;;;;;;;;;;;14.70;56.70;;;;;;6100340;23;19956;-79
2021/12/31 13:19:11;;;;;;;;;;;14.70;56.10;;;;;;6101475;23;19916;-79
2021/12/31 13:21:38;;;;;;;;;;;14.70;55.20;;;;;;6100244;23;19964;-78
2021/12/31 13:24:06;;;;;;;;;;;14.70;55.30;;;;;;6126038;23;19921;-78
2021/12/31 13:26:33;;;;;;;;;;;14.70;55.70;;;;;;6099895;23;19923;-77
2021/12/31 13:29:02;;;;;;;;;;;14.70;55.10;;;;;;6126389;23;20338;-78
2021/12/31 13:31:30;;;;;;;;;;;14.80;54.90;;;;;;6099829;23;19921;-77
2021/12/31 13:33:57;;;;;;;;;;;14.80;54.80;;;;;;6101394;23;19917;-79
2021/12/31 13:36:26;;;;;;;;;;;14.70;55.00;;;;;;6100263;23;20305;-79
2021/12/31 13:38:57;;;;;;;;;;;14.70;55.80;;;;;;6101348;23;19918;-81
2021/12/31 13:41:24;;;;;;;;;;;14.70;55.40;;;;;;6099815;23;19924;-80
2021/12/31 13:44:12;;;;;;;;;;;14.70;56.20;;;;;;6105091;23;19944;-78
2021/12/31 13:46:44;;;;;;;;;;;14.70;55.00;;;;;;6100001;23;19917;-81
2021/12/31 13:49:21;;;;;;;;;;;14.60;55.80;;;;;;6100779;23;19923;-79
2021/12/31 13:51:48;;;;;;;;;;;14.60;55.60;;;;;;6100605;23;19916;-80
2021/12/31 13:54:16;;;;;;;;;;;14.60;55.80;;;;;;6098912;23;19924;-79
2021/12/31 13:56:44;;;;;;;;;;;14.60;56.50;;;;;;6075164;23;19917;-80
2021/12/31 13:59:25;;;;;;;;;;;14.60;56.50;;;;;;6100433;23;19972;-81
2021/12/31 14:02:04;;;;;;;;;;;14.60;57.00;;;;;;6125846;23;19916;-77
2021/12/31 14:04:33;;;;;;;;;;;14.60;55.80;;;;;;6099005;23;19991;-79
2021/12/31 14:07:20;;;;;;;;;;;14.60;56.70;;;;;;6100294;23;20325;-80
2021/12/31 14:09:47;;;;;;;;;;;14.60;57.10;;;;;;6098692;23;19916;-78
2021/12/31 14:12:14;;;;;;;;;;;14.60;56.00;;;;;;6099892;23;19921;-79
2021/12/31 14:14:42;;;;;;;;;;;14.50;57.00;;;;;;6099346;23;19917;-80
2021/12/31 14:17:11;;;;;;;;;;;14.50;57.30;;;;;;6125107;23;20334;-79
2021/12/31 14:19:39;;;;;;;;;;;14.30;56.40;;;;;;6098861;23;19920;-80
2021/12/31 14:22:07;;;;;;;;;;;14.20;57.70;;;;;;6100005;23;19921;-77
2021/12/31 14:24:34;;;;;;;;;;;14.30;57.60;;;;;;6098193;23;19916;-80
2021/12/31 14:27:03;;;;;;;;;;;14.30;57.50;;;;;;6099101;23;19925;-81
2021/12/31 14:29:30;;;;;;;;;;;14.30;57.80;;;;;;6098633;23;20302;-78
2021/12/31 14:32:00;;;;;;;;;;;14.30;57.00;;;;;;6075770;23;19917;-77
2021/12/31 14:34:28;;;;;;;;;;;14.30;57.80;;;;;;6100109;23;20290;-80
2021/12/31 14:36:59;;;;;;;;;;;14.30;57.00;;;;;;6096568;23;19921;-78